This is the latest recevied weather packets stored in our database for station/object DB0OHA-13. If no packets are shown the sender has not sent any weather packets the latest 10 day(s).
| Time | Temp. | Humidity | Pressure | Rain* | Wind** | Luminosity | Snow |
|---|---|---|---|---|---|---|---|
| 1777803071 | 20.56° C | 49% | 1013.5 hPa | 0 mm | - | 268 W/m² | - |
| 1777802471 | 20° C | 45% | 1013.6 hPa | 0 mm | - | 183 W/m² | - |
| 1777801871 | 20.56° C | 46% | 1013.8 hPa | 0 mm | - | 196 W/m² | - |
| 1777801271 | 20.56° C | 46% | 1013.9 hPa | 0 mm | - | 255 W/m² | - |
| 1777800671 | 21.11° C | 47% | 1013.7 hPa | 0 mm | - | 318 W/m² | - |
| 1777800071 | 21.67° C | 47% | 1013.7 hPa | 0 mm | - | 400 W/m² | - |
| 1777799471 | 21.67° C | 48% | 1013.7 hPa | 0 mm | - | 475 W/m² | - |
| 1777798871 | 21.67° C | 49% | 1013.8 hPa | 0 mm | - | 437 W/m² | - |
| 1777798271 | 21.11° C | 48% | 1013.6 hPa | 0 mm | - | 365 W/m² | - |
| 1777797671 | 21.67° C | 46% | 1013.6 hPa | 0 mm | - | 546 W/m² | - |
| 1777797070 | 21.11° C | 47% | 1013.4 hPa | 0 mm | - | 483 W/m² | - |
| 1777796471 | 20.56° C | 45% | 1013.5 hPa | 0 mm | - | 293 W/m² | - |
| 1777795870 | 21.11° C | 48% | 1013.6 hPa | 0 mm | - | 345 W/m² | - |
| 1777795270 | 21.67° C | 46% | 1013.5 hPa | 0 mm | - | 637 W/m² | - |
| 1777794670 | 20.56° C | 47% | 1013.5 hPa | 0 mm | - | 506 W/m² | - |
| 1777794070 | 20.56° C | 47% | 1013.4 hPa | 0 mm | - | 508 W/m² | - |
| 1777792870 | 20° C | 47% | 1013.3 hPa | 0 mm | - | 435 W/m² | - |
| 1777792270 | 20° C | 46% | 1013.4 hPa | 0 mm | - | 426 W/m² | - |
| 1777791669 | 20° C | 48% | 1013.2 hPa | 0 mm | - | 385 W/m² | - |
| 1777791069 | 18.89° C | 54% | 1013.2 hPa | 0 mm | - | 334 W/m² | - |
| 1777790469 | 17.78° C | 55% | 1013.2 hPa | 0 mm | - | 275 W/m² | - |
| 1777789869 | 16.67° C | 59% | 1013.3 hPa | 0 mm | - | 265 W/m² | - |
| 1777789269 | 16.11° C | 61% | 1013.3 hPa | 0 mm | - | 261 W/m² | - |
| 1777788669 | 15° C | 62% | 1013.3 hPa | 0 mm | - | 215 W/m² | - |
| 1777788069 | 14.44° C | 63% | 1013.3 hPa | 0 mm | - | 91 W/m² | - |
* Rain latest hour (hover to see other rain measurements)
** Current wind speed in m/s (hover to see current wind gust speed)